createdAt,value
2017-05-21T00:00:30.514Z,90.60
2017-05-21T00:02:58.914Z,90.40
2017-05-21T00:05:27.231Z,90.70
2017-05-21T00:07:55.559Z,91.10
2017-05-21T00:10:23.942Z,90.70
2017-05-21T00:12:52.268Z,90.80
2017-05-21T00:15:20.646Z,90.80
2017-05-21T00:17:49.495Z,90.80
2017-05-21T00:20:17.810Z,90.90
2017-05-21T00:22:46.133Z,90.40
2017-05-21T00:25:14.466Z,91.20
2017-05-21T00:27:42.787Z,91.30
2017-05-21T00:30:11.114Z,90.80
2017-05-21T00:32:39.423Z,91.40
2017-05-21T00:35:07.739Z,91.40
2017-05-21T00:37:36.123Z,91.40
2017-05-21T00:40:04.453Z,90.80
2017-05-21T00:42:32.767Z,91.50
2017-05-21T00:45:01.167Z,91.40
2017-05-21T00:47:29.483Z,91.80
2017-05-21T00:49:57.802Z,91.90
2017-05-21T00:52:26.120Z,91.80
2017-05-21T00:54:54.486Z,91.70
2017-05-21T00:57:22.862Z,91.70
2017-05-21T00:59:51.188Z,91.40
2017-05-21T01:02:19.500Z,91.80
2017-05-21T01:04:47.899Z,92.00
2017-05-21T01:07:16.217Z,92.30
2017-05-21T01:09:44.560Z,92.10
2017-05-21T01:12:12.875Z,92.10
2017-05-21T01:14:41.187Z,92.30
2017-05-21T01:17:09.507Z,92.40
2017-05-21T01:19:37.822Z,92.50
2017-05-21T01:22:06.246Z,92.50
2017-05-21T01:24:34.626Z,92.30
2017-05-21T01:27:02.940Z,92.40
2017-05-21T01:29:31.291Z,92.40
2017-05-21T01:31:59.662Z,91.90
2017-05-21T01:34:28.043Z,92.10
2017-05-21T01:36:56.362Z,92.20
2017-05-21T01:39:24.711Z,92.50
2017-05-21T01:41:53.086Z,92.50
2017-05-21T01:44:21.402Z,92.10
2017-05-21T01:46:49.738Z,92.20
2017-05-21T01:49:18.056Z,92.50
2017-05-21T01:51:46.394Z,92.50
2017-05-21T01:54:14.737Z,91.90
2017-05-21T01:56:43.047Z,92.50
2017-05-21T01:59:11.362Z,92.50
2017-05-21T02:01:39.675Z,92.10
2017-05-21T02:04:08.090Z,92.20
2017-05-21T02:06:36.478Z,92.40
2017-05-21T02:09:04.794Z,92.00
2017-05-21T02:11:33.131Z,92.60
2017-05-21T02:14:01.509Z,92.50
2017-05-21T02:16:29.887Z,92.80
2017-05-21T02:18:58.267Z,93.00
2017-05-21T02:21:26.646Z,92.50
2017-05-21T02:23:54.961Z,93.20
2017-05-21T02:26:23.282Z,92.60
2017-05-21T02:28:51.686Z,92.70
2017-05-21T02:31:19.998Z,93.00
2017-05-21T02:33:48.314Z,92.80
2017-05-21T02:36:16.634Z,92.30
2017-05-21T02:38:44.947Z,92.40
2017-05-21T02:41:13.283Z,92.40
2017-05-21T02:43:41.659Z,92.80
2017-05-21T02:46:09.974Z,92.50
2017-05-21T02:48:38.319Z,92.70
2017-05-21T02:51:06.694Z,92.60
2017-05-21T02:53:35.076Z,92.60
2017-05-21T02:56:03.462Z,92.50
2017-05-21T02:58:31.847Z,92.60
2017-05-21T03:01:00.157Z,92.60
2017-05-21T03:03:28.499Z,92.80
2017-05-21T03:05:56.822Z,93.00
2017-05-21T03:08:25.179Z,92.90
2017-05-21T03:10:53.529Z,93.10
2017-05-21T03:13:21.853Z,93.10
2017-05-21T03:15:50.278Z,92.80
2017-05-21T03:18:18.679Z,93.50
2017-05-21T03:20:47.058Z,92.90
2017-05-21T03:23:15.370Z,92.90
2017-05-21T03:25:43.715Z,93.10
2017-05-21T03:28:12.063Z,92.70
2017-05-21T03:30:40.478Z,92.70
2017-05-21T03:33:08.795Z,92.80
2017-05-21T03:35:37.099Z,92.70
2017-05-21T03:38:05.412Z,93.00
2017-05-21T03:40:33.789Z,92.90
2017-05-21T03:43:02.171Z,92.70
2017-05-21T03:45:30.482Z,93.00
2017-05-21T03:47:58.799Z,92.90
2017-05-21T03:50:27.212Z,92.90
2017-05-21T03:52:55.518Z,93.10
2017-05-21T03:55:23.871Z,93.10
2017-05-21T03:57:52.183Z,93.20
2017-05-21T04:00:20.497Z,93.20
2017-05-21T04:02:48.818Z,93.30
2017-05-21T04:05:17.179Z,93.50
2017-05-21T04:07:45.496Z,92.80
2017-05-21T04:10:13.826Z,92.90
2017-05-21T04:12:42.157Z,93.20
2017-05-21T04:15:10.482Z,93.20
2017-05-21T04:17:38.798Z,93.20
2017-05-21T04:20:07.155Z,92.70
2017-05-21T04:22:35.501Z,93.20
2017-05-21T04:25:07.584Z,93.00
2017-05-21T04:27:35.974Z,92.00
2017-05-21T04:30:04.361Z,92.90
2017-05-21T04:32:32.678Z,92.90
2017-05-21T04:35:01.015Z,92.80
2017-05-21T04:37:29.387Z,92.50
2017-05-21T04:39:57.767Z,91.90
2017-05-21T04:42:26.263Z,91.30
2017-05-21T04:44:54.639Z,91.80
2017-05-21T04:47:22.968Z,90.80
2017-05-21T04:49:51.396Z,90.90
2017-05-21T04:52:19.720Z,91.20
2017-05-21T04:54:48.063Z,90.80
2017-05-21T05:05:57.863Z,90.20
2017-05-21T05:08:26.239Z,88.60
2017-05-21T05:10:54.615Z,88.30
2017-05-21T05:13:23.002Z,89.00
2017-05-21T05:15:51.382Z,84.90
2017-05-21T05:18:25.372Z,73.80
2017-05-21T05:20:53.965Z,64.10
2017-05-21T05:23:22.370Z,59.20
2017-05-21T05:25:50.711Z,58.90
2017-05-21T05:28:19.129Z,52.70
2017-05-21T05:30:47.438Z,54.40
2017-05-21T05:33:15.879Z,55.00
2017-05-21T05:35:44.381Z,52.80
2017-05-21T05:38:12.711Z,50.70
2017-05-21T05:40:41.429Z,51.20
2017-05-21T05:43:09.751Z,53.90
2017-05-21T05:45:38.065Z,52.70
2017-05-21T05:48:06.371Z,51.90
2017-05-21T05:50:34.743Z,50.60
2017-05-21T05:53:03.128Z,51.00
2017-05-21T05:55:31.478Z,51.90
2017-05-21T05:57:59.798Z,52.80
2017-05-21T06:00:28.139Z,46.70
2017-05-21T06:02:56.545Z,46.60
2017-05-21T06:05:24.922Z,45.30
2017-05-21T06:07:53.235Z,47.90
2017-05-21T06:10:21.573Z,47.30
2017-05-21T06:12:49.894Z,46.30
2017-05-21T06:15:18.238Z,46.50
2017-05-21T06:17:46.615Z,46.30
2017-05-21T06:20:15.006Z,48.00
2017-05-21T06:22:43.451Z,46.30
2017-05-21T06:25:11.864Z,42.20
2017-05-21T06:27:40.198Z,43.80
2017-05-21T06:30:08.511Z,42.10
2017-05-21T06:32:36.823Z,44.50
2017-05-21T06:35:05.183Z,41.50
2017-05-21T06:37:33.496Z,40.70
2017-05-21T06:40:01.820Z,41.70
2017-05-21T06:42:30.139Z,41.70
2017-05-21T06:44:58.479Z,42.30
2017-05-21T06:47:26.789Z,43.60
2017-05-21T06:49:55.402Z,40.30
2017-05-21T06:52:23.723Z,42.90
2017-05-21T06:54:52.063Z,38.50
2017-05-21T06:57:20.391Z,40.90
2017-05-21T06:59:48.694Z,38.60
2017-05-21T07:02:16.998Z,39.20
2017-05-21T07:04:45.330Z,39.40
2017-05-21T07:07:13.815Z,41.80
2017-05-21T07:09:42.125Z,38.00
2017-05-21T07:12:10.571Z,36.00
2017-05-21T07:14:38.893Z,39.10
2017-05-21T07:17:07.238Z,37.00
2017-05-21T07:19:35.608Z,39.60
2017-05-21T07:22:03.923Z,40.50
2017-05-21T07:24:32.234Z,41.60
2017-05-21T07:27:00.650Z,38.30
2017-05-21T07:29:28.990Z,38.50
2017-05-21T07:31:57.299Z,36.60
2017-05-21T07:34:25.632Z,40.50
2017-05-21T07:36:53.942Z,35.60
2017-05-21T07:39:22.277Z,41.00
2017-05-21T07:41:50.595Z,39.80
2017-05-21T07:44:19.006Z,43.00
2017-05-21T07:46:47.379Z,44.90
2017-05-21T07:49:15.690Z,39.20
2017-05-21T07:51:44.031Z,39.10
2017-05-21T07:54:12.348Z,36.20
2017-05-21T07:56:40.690Z,39.00
2017-05-21T07:59:09.054Z,37.80
2017-05-21T08:01:37.388Z,43.00
2017-05-21T08:04:05.735Z,41.00
2017-05-21T08:06:34.108Z,43.50
2017-05-21T08:09:02.426Z,39.70
2017-05-21T08:11:30.774Z,38.50
2017-05-21T08:13:59.083Z,41.90
2017-05-21T08:16:27.416Z,39.60
2017-05-21T08:18:55.727Z,41.30
2017-05-21T08:21:24.073Z,41.70
2017-05-21T08:23:52.408Z,42.40
2017-05-21T08:26:20.739Z,43.90
2017-05-21T08:28:49.114Z,41.30
2017-05-21T08:31:17.422Z,41.00
2017-05-21T08:33:45.756Z,38.10
2017-05-21T08:36:14.072Z,40.50
2017-05-21T08:38:42.418Z,39.90
2017-05-21T08:41:10.729Z,42.30
2017-05-21T08:43:39.039Z,39.50
2017-05-21T08:46:07.356Z,41.40
2017-05-21T08:48:35.664Z,37.40
2017-05-21T08:51:03.985Z,44.70
2017-05-21T08:53:32.331Z,39.70
2017-05-21T08:56:00.647Z,36.00
2017-05-21T08:58:28.969Z,40.90
2017-05-21T09:00:57.344Z,40.10
2017-05-21T09:03:25.719Z,42.70
2017-05-21T09:05:54.102Z,37.70
2017-05-21T09:08:22.412Z,41.40
2017-05-21T09:10:50.726Z,38.70
2017-05-21T09:13:19.143Z,35.80
2017-05-21T09:15:47.456Z,35.30
2017-05-21T09:18:15.767Z,41.10
2017-05-21T09:20:44.084Z,40.00
2017-05-21T09:23:12.404Z,42.60
2017-05-21T09:25:40.718Z,34.10
2017-05-21T09:28:09.028Z,46.30
2017-05-21T09:30:37.394Z,39.90
2017-05-21T09:33:05.754Z,42.70
2017-05-21T09:35:34.071Z,39.60
2017-05-21T09:38:02.391Z,37.50
2017-05-21T09:40:30.803Z,35.60
2017-05-21T09:42:59.111Z,42.50
2017-05-21T09:45:27.431Z,34.70
2017-05-21T09:47:55.741Z,36.40
2017-05-21T09:50:24.053Z,40.40
2017-05-21T09:52:52.367Z,37.40
2017-05-21T09:55:20.716Z,37.70
2017-05-21T09:57:49.034Z,40.70
2017-05-21T10:00:17.351Z,36.10
2017-05-21T10:02:45.658Z,40.50
2017-05-21T10:05:13.968Z,42.30
2017-05-21T10:07:42.272Z,40.70
2017-05-21T10:10:10.599Z,40.80
2017-05-21T10:12:38.935Z,37.50
2017-05-21T10:15:07.306Z,37.90
2017-05-21T10:17:35.656Z,37.60
2017-05-21T10:20:03.962Z,42.10
2017-05-21T10:22:32.283Z,38.50
2017-05-21T10:25:00.604Z,40.50
2017-05-21T10:27:28.996Z,39.90
2017-05-21T10:29:57.388Z,38.40
2017-05-21T10:32:25.765Z,34.50
2017-05-21T10:34:54.100Z,35.00
2017-05-21T10:37:22.419Z,42.00
2017-05-21T10:39:50.762Z,36.10
2017-05-21T10:42:19.071Z,34.60
2017-05-21T10:44:47.380Z,35.20
2017-05-21T10:47:15.682Z,38.00
2017-05-21T10:49:43.993Z,37.30
2017-05-21T10:52:12.387Z,37.20
2017-05-21T10:54:40.764Z,40.20
2017-05-21T10:57:09.073Z,41.40
2017-05-21T10:59:37.430Z,41.00
2017-05-21T11:02:05.800Z,39.50
2017-05-21T11:04:34.123Z,40.00
2017-05-21T11:07:02.434Z,41.00
2017-05-21T11:09:30.847Z,41.40
2017-05-21T11:11:59.222Z,39.50
2017-05-21T11:14:27.533Z,39.40
2017-05-21T11:16:55.879Z,40.20
2017-05-21T11:19:24.183Z,40.50
2017-05-21T11:21:52.544Z,35.60
2017-05-21T11:24:20.877Z,34.40
2017-05-21T11:26:49.194Z,37.70
2017-05-21T11:29:17.548Z,39.10
2017-05-21T11:31:45.963Z,39.90
2017-05-21T11:34:14.335Z,35.00
2017-05-21T11:36:42.679Z,36.70
2017-05-21T11:39:10.989Z,35.70
2017-05-21T11:41:39.297Z,40.40
2017-05-21T11:44:07.606Z,38.10
2017-05-21T11:46:35.962Z,34.90
2017-05-21T11:49:04.314Z,41.10
2017-05-21T11:51:32.668Z,39.20
2017-05-21T11:54:00.983Z,37.50
2017-05-21T11:56:29.297Z,34.90
2017-05-21T11:58:57.608Z,35.40
2017-05-21T12:01:26.012Z,35.40
2017-05-21T12:03:54.325Z,37.60
2017-05-21T12:06:22.662Z,36.60
2017-05-21T12:08:51.002Z,35.40
2017-05-21T12:11:19.313Z,33.70
2017-05-21T12:13:47.694Z,34.20
2017-05-21T12:16:16.003Z,36.70
2017-05-21T12:18:44.356Z,35.30
2017-05-21T12:21:12.731Z,37.70
2017-05-21T12:23:41.051Z,38.00
2017-05-21T12:26:09.411Z,35.60
2017-05-21T12:28:37.791Z,34.10
2017-05-21T12:31:06.102Z,37.90
2017-05-21T12:33:34.411Z,36.70
2017-05-21T12:36:02.750Z,37.40
2017-05-21T12:38:31.065Z,32.20
2017-05-21T12:40:59.475Z,39.00
2017-05-21T12:43:27.795Z,33.20
2017-05-21T12:45:56.135Z,40.20
2017-05-21T12:48:24.512Z,35.20
2017-05-21T12:50:52.883Z,31.80
2017-05-21T12:53:21.239Z,30.60
2017-05-21T12:55:49.548Z,33.70
2017-05-21T12:58:17.927Z,35.50
2017-05-21T13:00:46.302Z,38.70
2017-05-21T13:03:14.683Z,38.10
2017-05-21T13:05:42.995Z,35.90
2017-05-21T13:08:11.332Z,34.80
2017-05-21T13:10:39.668Z,35.90
2017-05-21T13:13:07.972Z,34.40
2017-05-21T13:15:36.388Z,36.90
2017-05-21T13:18:04.702Z,33.80
2017-05-21T13:20:33.017Z,33.30
2017-05-21T13:23:01.343Z,39.80
2017-05-21T13:25:29.664Z,35.10
2017-05-21T13:27:57.971Z,37.50
2017-05-21T13:30:26.286Z,37.40
2017-05-21T13:32:54.731Z,36.90
2017-05-21T13:35:23.046Z,33.80
2017-05-21T13:37:51.391Z,40.30
2017-05-21T13:40:19.783Z,35.70
2017-05-21T13:42:48.095Z,37.80
2017-05-21T13:45:16.400Z,36.80
2017-05-21T13:47:44.707Z,37.00
2017-05-21T13:50:13.015Z,40.10
2017-05-21T13:58:28.499Z,38.20
2017-05-21T14:00:56.835Z,37.90
2017-05-21T14:03:25.156Z,37.60
2017-05-21T14:05:53.643Z,36.30
2017-05-21T14:08:21.964Z,35.00
2017-05-21T14:10:50.284Z,36.60
2017-05-21T14:13:18.599Z,36.30
2017-05-21T14:15:46.906Z,34.00
2017-05-21T14:18:15.231Z,35.30
2017-05-21T14:20:43.552Z,31.20
2017-05-21T14:23:11.895Z,33.20
2017-05-21T14:25:40.295Z,31.90
2017-05-21T14:28:08.653Z,33.30
2017-05-21T14:30:37.027Z,36.60
2017-05-21T14:33:05.408Z,35.00
2017-05-21T14:35:33.731Z,34.70
2017-05-21T14:38:02.039Z,35.00
2017-05-21T14:40:30.347Z,35.40
2017-05-21T14:42:58.656Z,32.70
2017-05-21T14:45:26.997Z,35.90
2017-05-21T14:47:55.299Z,33.50
2017-05-21T14:50:23.650Z,34.90
2017-05-21T14:52:52.044Z,33.60
2017-05-21T14:55:20.422Z,34.20
2017-05-21T14:57:48.739Z,34.50
2017-05-21T15:00:17.058Z,32.60
2017-05-21T15:02:45.458Z,34.10
2017-05-21T15:05:13.846Z,33.80
2017-05-21T15:07:42.156Z,32.70
2017-05-21T15:10:10.474Z,35.50
2017-05-21T15:12:38.877Z,35.90
2017-05-21T15:15:07.195Z,30.40
2017-05-21T15:17:35.707Z,33.40
2017-05-21T15:20:04.022Z,31.90
2017-05-21T15:22:32.333Z,34.40
2017-05-21T15:25:00.655Z,32.70
2017-05-21T15:27:29.036Z,30.90
2017-05-21T15:29:57.347Z,33.50
2017-05-21T15:32:25.708Z,33.50
2017-05-21T15:34:54.017Z,37.00
2017-05-21T15:37:22.323Z,35.20
2017-05-21T15:39:50.654Z,37.30
2017-05-21T15:42:19.027Z,35.80
2017-05-21T15:44:47.358Z,32.00
2017-05-21T15:47:15.668Z,36.50
2017-05-21T15:49:44.090Z,36.00
2017-05-21T15:52:12.444Z,37.40
2017-05-21T15:54:40.819Z,37.50
2017-05-21T15:57:09.121Z,37.90
2017-05-21T15:59:37.423Z,35.70
2017-05-21T16:02:05.740Z,37.00
2017-05-21T16:04:34.047Z,37.00
2017-05-21T16:07:02.392Z,39.90
2017-05-21T16:09:30.709Z,39.00
2017-05-21T16:11:59.066Z,39.70
2017-05-21T16:14:27.379Z,40.90
2017-05-21T16:17:10.474Z,37.00
2017-05-21T16:19:38.857Z,38.60
2017-05-21T16:22:17.834Z,37.30
2017-05-21T16:24:46.182Z,33.50
2017-05-21T16:27:14.495Z,36.50
2017-05-21T16:29:42.810Z,36.40
2017-05-21T16:32:11.123Z,36.20
2017-05-21T16:34:39.456Z,36.20
2017-05-21T16:37:08.123Z,37.50
2017-05-21T16:39:36.460Z,41.00
2017-05-21T16:42:04.771Z,38.60
2017-05-21T16:44:33.237Z,38.70
2017-05-21T16:47:01.598Z,35.10
2017-05-21T16:49:29.983Z,38.20
2017-05-21T16:51:58.338Z,40.20
2017-05-21T16:54:26.659Z,39.40
2017-05-21T16:56:55.003Z,38.10
2017-05-21T16:59:23.317Z,37.10
2017-05-21T17:01:51.660Z,38.60
2017-05-21T17:04:19.975Z,38.40
2017-05-21T17:06:48.418Z,37.00
2017-05-21T17:09:16.723Z,40.70
2017-05-21T17:11:45.070Z,38.10
2017-05-21T17:14:13.371Z,38.80
2017-05-21T17:16:41.689Z,40.50
2017-05-21T17:19:10.026Z,40.90
2017-05-21T17:21:38.326Z,40.80
2017-05-21T17:24:06.654Z,43.20
2017-05-21T17:26:34.962Z,40.90
2017-05-21T17:29:03.330Z,42.10
2017-05-21T17:31:31.654Z,43.10
2017-05-21T17:33:59.987Z,43.00
2017-05-21T17:36:28.303Z,41.90
2017-05-21T17:38:56.601Z,42.10
2017-05-21T17:41:25.014Z,41.20
2017-05-21T17:43:53.326Z,42.70
2017-05-21T17:46:21.679Z,44.30
2017-05-21T17:48:49.995Z,43.60
2017-05-21T17:51:18.331Z,42.90
2017-05-21T17:53:46.727Z,44.20
2017-05-21T17:56:15.100Z,44.70
2017-05-21T17:58:54.023Z,46.40
2017-05-21T18:01:22.334Z,45.60
2017-05-21T18:03:50.635Z,44.70
2017-05-21T18:06:18.995Z,48.00
2017-05-21T18:08:47.306Z,46.40
2017-05-21T18:11:15.628Z,45.90
2017-05-21T18:13:43.958Z,46.40
2017-05-21T18:16:12.379Z,46.50
2017-05-21T18:18:40.694Z,46.10
2017-05-21T18:21:09.034Z,48.30
2017-05-21T18:23:37.350Z,47.10
2017-05-21T18:26:05.667Z,46.90
2017-05-21T18:28:34.013Z,48.90
2017-05-21T18:31:02.352Z,47.00
2017-05-21T18:33:30.741Z,48.00
2017-05-21T18:35:59.050Z,49.00
2017-05-21T18:38:27.388Z,51.00
2017-05-21T18:40:55.773Z,50.00
2017-05-21T18:43:24.083Z,51.40
2017-05-21T18:45:52.430Z,50.00
2017-05-21T18:48:20.830Z,49.80
2017-05-21T18:50:49.180Z,53.10
2017-05-21T18:56:11.340Z,52.10
2017-05-21T18:58:39.718Z,54.30
2017-05-21T19:01:08.139Z,52.10
2017-05-21T19:03:36.481Z,54.20
2017-05-21T19:06:04.854Z,54.80
2017-05-21T19:08:33.243Z,53.30
2017-05-21T19:11:02.454Z,52.90
2017-05-21T19:13:30.818Z,55.60
2017-05-21T19:15:59.208Z,54.40
2017-05-21T19:18:27.518Z,54.70
2017-05-21T19:20:55.832Z,55.10
2017-05-21T19:23:24.247Z,57.40
2017-05-21T19:25:52.580Z,57.80
2017-05-21T19:28:20.988Z,59.70
2017-05-21T19:30:49.322Z,57.70
2017-05-21T19:33:17.635Z,52.90
2017-05-21T19:35:46.274Z,52.60
2017-05-21T19:38:14.603Z,55.80
2017-05-21T19:40:42.995Z,57.80
2017-05-21T19:43:11.305Z,58.80
2017-05-21T19:45:39.658Z,60.50
2017-05-21T19:48:07.972Z,62.00
2017-05-21T19:50:36.285Z,60.20
2017-05-21T19:53:04.687Z,60.90
2017-05-21T19:55:33.080Z,62.20
2017-05-21T19:58:01.426Z,60.90
2017-05-21T20:00:29.736Z,60.90
2017-05-21T20:02:58.042Z,62.30
2017-05-21T20:05:26.386Z,60.70
2017-05-21T20:07:54.708Z,64.40
2017-05-21T20:10:23.051Z,63.20
2017-05-21T20:12:51.362Z,64.50
2017-05-21T20:15:19.694Z,65.00
2017-05-21T20:17:48.016Z,66.30
2017-05-21T20:20:16.362Z,68.50
2017-05-21T20:22:44.734Z,67.90
2017-05-21T20:25:13.066Z,67.90
2017-05-21T20:27:41.371Z,66.90
2017-05-21T20:30:09.686Z,70.30
2017-05-21T20:32:37.989Z,69.60
2017-05-21T20:35:06.327Z,70.00
2017-05-21T20:37:34.723Z,69.40
2017-05-21T20:40:03.095Z,71.80
2017-05-21T20:42:31.414Z,72.30
2017-05-21T20:44:59.722Z,71.60
2017-05-21T20:47:28.140Z,72.30
2017-05-21T20:49:56.471Z,73.50
2017-05-21T20:52:24.782Z,73.00
2017-05-21T20:54:53.095Z,73.90
2017-05-21T20:57:21.438Z,73.80
2017-05-21T20:59:49.752Z,72.20
2017-05-21T21:02:18.061Z,73.50
2017-05-21T21:04:46.379Z,74.90
2017-05-21T21:07:14.763Z,73.80
2017-05-21T21:09:43.145Z,74.60
2017-05-21T21:12:11.462Z,76.50
2017-05-21T21:14:39.793Z,76.10
2017-05-21T21:17:08.117Z,75.00
2017-05-21T21:19:36.463Z,76.90
2017-05-21T21:22:04.771Z,76.40
2017-05-21T21:24:33.118Z,75.40
2017-05-21T21:27:01.438Z,77.10
2017-05-21T21:29:29.777Z,77.20
2017-05-21T21:31:58.091Z,78.80
2017-05-21T21:34:26.399Z,76.80
2017-05-21T21:36:54.708Z,76.90
2017-05-21T21:39:23.027Z,77.10
2017-05-21T21:41:51.362Z,79.00
2017-05-21T21:44:19.692Z,77.10
2017-05-21T21:46:48.026Z,78.30
2017-05-21T21:49:16.402Z,77.10
2017-05-21T21:51:44.784Z,78.80
2017-05-21T21:54:13.154Z,78.50
2017-05-21T21:56:41.627Z,79.90
2017-05-21T21:59:10.046Z,78.40
2017-05-21T22:01:38.356Z,81.20
2017-05-21T22:04:06.666Z,79.60
2017-05-21T22:06:35.066Z,79.20
2017-05-21T22:09:03.397Z,79.40
2017-05-21T22:11:31.702Z,79.40
2017-05-21T22:14:00.111Z,81.80
2017-05-21T22:16:28.483Z,81.10
2017-05-21T22:18:56.863Z,82.10
2017-05-21T22:21:25.254Z,81.50
2017-05-21T22:23:53.623Z,81.50
2017-05-21T22:26:21.995Z,81.60
2017-05-21T22:28:50.378Z,80.40
2017-05-21T22:31:18.716Z,82.40
2017-05-21T22:33:47.038Z,80.60
2017-05-21T22:36:15.378Z,82.80
2017-05-21T22:38:43.790Z,83.60
2017-05-21T22:41:12.130Z,82.80
2017-05-21T22:43:40.451Z,83.30
2017-05-21T22:46:08.766Z,83.20
2017-05-21T22:48:37.108Z,82.00
2017-05-21T22:51:05.486Z,81.70
2017-05-21T22:53:33.905Z,82.00
2017-05-21T22:56:04.908Z,82.00
2017-05-21T22:58:33.253Z,80.40
2017-05-21T23:01:01.572Z,77.20
2017-05-21T23:03:29.922Z,77.50
2017-05-21T23:05:58.233Z,80.40
2017-05-21T23:08:26.546Z,81.20
2017-05-21T23:10:54.914Z,80.60
2017-05-21T23:13:23.264Z,80.60
2017-05-21T23:15:51.595Z,81.40
2017-05-21T23:18:19.900Z,84.10
2017-05-21T23:20:48.230Z,83.00
2017-05-21T23:23:16.534Z,83.70
2017-05-21T23:25:44.866Z,82.10
2017-05-21T23:28:13.250Z,83.30
2017-05-21T23:30:41.622Z,86.00
2017-05-21T23:33:09.930Z,83.60
2017-05-21T23:35:38.279Z,86.30
2017-05-21T23:38:06.659Z,84.30
2017-05-21T23:40:34.986Z,85.00
2017-05-21T23:43:07.012Z,86.70
2017-05-21T23:45:35.389Z,86.40
2017-05-21T23:48:03.804Z,86.10
2017-05-21T23:50:32.150Z,85.80
2017-05-21T23:53:00.505Z,87.10
2017-05-21T23:55:28.904Z,86.90
2017-05-21T23:57:57.247Z,87.00
